createdAt,value
2022-12-22T00:04:46.034Z,5.85
2022-12-22T00:15:08.951Z,5.89
2022-12-22T00:25:36.376Z,5.97
2022-12-22T00:35:58.646Z,5.94
2022-12-22T00:46:23.101Z,5.77
2022-12-22T00:56:45.393Z,5.69
2022-12-22T01:07:07.724Z,5.59
2022-12-22T01:17:30.594Z,5.66
2022-12-22T01:27:52.897Z,5.80
2022-12-22T01:38:15.267Z,5.83
2022-12-22T01:48:41.673Z,5.92
2022-12-22T01:59:10.491Z,5.98
2022-12-22T02:09:59.325Z,5.98
2022-12-22T02:20:49.125Z,6.00
2022-12-22T02:31:12.357Z,6.05
2022-12-22T02:41:57.564Z,6.01
2022-12-22T02:52:49.336Z,5.91
2022-12-22T03:03:11.747Z,5.96
2022-12-22T03:13:34.210Z,6.07
2022-12-22T03:23:56.542Z,6.22
2022-12-22T03:34:00.101Z,6.29
2022-12-22T03:44:22.387Z,6.34
2022-12-22T03:54:26.301Z,6.37
2022-12-22T04:04:29.983Z,6.33
2022-12-22T04:14:34.846Z,6.32
2022-12-22T04:24:38.794Z,6.36
2022-12-22T04:34:42.378Z,6.30
2022-12-22T04:44:46.041Z,6.20
2022-12-22T04:54:49.746Z,6.24
2022-12-22T05:04:53.385Z,6.31
2022-12-22T05:14:57.032Z,6.36
2022-12-22T05:25:00.671Z,6.48
2022-12-22T05:35:04.676Z,6.49
2022-12-22T05:45:13.119Z,6.55
2022-12-22T05:55:17.652Z,6.53
2022-12-22T06:05:21.258Z,6.48
2022-12-22T06:15:24.998Z,6.44
2022-12-22T06:25:28.571Z,6.45
2022-12-22T06:35:32.141Z,6.40
2022-12-22T06:45:41.941Z,6.39
2022-12-22T06:55:45.648Z,6.41
2022-12-22T07:05:49.214Z,6.47
2022-12-22T07:16:00.147Z,6.64
2022-12-22T07:26:05.820Z,6.70
2022-12-22T07:36:16.401Z,6.73
2022-12-22T07:46:20.472Z,6.76
2022-12-22T07:56:24.158Z,6.87
2022-12-22T08:06:28.522Z,6.90
2022-12-22T08:16:32.311Z,6.94
2022-12-22T08:26:41.247Z,7.07
2022-12-22T08:36:49.301Z,7.26
2022-12-22T08:46:56.559Z,7.26
2022-12-22T08:57:00.212Z,7.51
2022-12-22T09:07:03.943Z,8.01
2022-12-22T09:17:09.324Z,7.99
2022-12-22T09:27:13.258Z,7.89
2022-12-22T09:37:17.765Z,7.86
2022-12-22T09:47:25.633Z,7.92
2022-12-22T09:57:33.552Z,7.90
2022-12-22T10:07:40.780Z,7.84
2022-12-22T10:17:44.683Z,7.86
2022-12-22T10:27:51.545Z,7.86
2022-12-22T10:37:55.323Z,7.71
2022-12-22T10:47:59.335Z,7.75
2022-12-22T10:58:09.107Z,7.86
2022-12-22T11:08:19.263Z,8.09
2022-12-22T11:18:58.810Z,8.27
2022-12-22T11:29:14.847Z,8.22
2022-12-22T11:39:37.131Z,8.33
2022-12-22T11:50:25.451Z,8.44
2022-12-22T12:00:28.396Z,8.38
2022-12-22T12:10:48.235Z,8.40
2022-12-22T12:21:13.389Z,8.25
2022-12-22T12:31:26.133Z,8.27
2022-12-22T12:41:39.340Z,8.38
2022-12-22T12:51:50.398Z,8.30
2022-12-22T13:01:56.238Z,8.33
2022-12-22T13:12:38.734Z,8.16
2022-12-22T13:22:44.133Z,8.15
2022-12-22T13:32:51.564Z,7.99
2022-12-22T13:42:56.447Z,7.92
2022-12-22T13:53:02.482Z,7.77
2022-12-22T14:03:41.802Z,7.59
2022-12-22T14:13:43.892Z,7.44
2022-12-22T14:23:49.908Z,7.19
2022-12-22T14:34:38.234Z,7.04
2022-12-22T14:44:54.417Z,6.93
2022-12-22T15:08:06.804Z,6.85
2022-12-22T15:18:15.452Z,6.93
2022-12-22T15:28:19.088Z,6.89
2022-12-22T15:38:24.686Z,6.94
2022-12-22T15:48:34.730Z,7.09
2022-12-22T15:58:38.422Z,7.13
2022-12-22T16:08:47.259Z,7.13
2022-12-22T16:18:52.476Z,7.16
2022-12-22T16:28:56.331Z,7.18
2022-12-22T16:39:00.113Z,7.13
2022-12-22T16:49:07.403Z,7.13
2022-12-22T16:59:11.290Z,7.06
2022-12-22T17:09:20.453Z,7.01
2022-12-22T17:19:24.928Z,6.94
2022-12-22T17:29:30.283Z,6.88
2022-12-22T17:39:38.709Z,6.83
2022-12-22T17:49:43.437Z,6.89
2022-12-22T17:59:47.416Z,6.92
2022-12-22T18:09:56.697Z,6.97
2022-12-22T18:20:00.787Z,6.92
2022-12-22T18:30:15.667Z,6.92
2022-12-22T18:40:34.516Z,7.02
2022-12-22T18:50:42.475Z,7.11
2022-12-22T19:40:17.207Z,7.06
2022-12-22T19:50:24.827Z,7.18
2022-12-22T20:00:28.672Z,7.29
2022-12-22T20:10:35.190Z,7.34
2022-12-22T20:20:39.466Z,7.42
2022-12-22T20:30:43.685Z,7.47
2022-12-22T20:40:49.889Z,7.51
2022-12-22T20:50:53.549Z,7.58
2022-12-22T21:01:01.584Z,7.59
2022-12-22T21:11:06.369Z,7.62
2022-12-22T21:21:11.526Z,7.64
2022-12-22T21:31:15.415Z,7.70
2022-12-22T21:41:19.190Z,7.67
2022-12-22T21:51:22.739Z,7.57
2022-12-22T22:01:26.473Z,7.41
2022-12-22T22:11:30.397Z,7.39
2022-12-22T22:21:35.268Z,7.42
2022-12-22T22:31:40.792Z,7.56
2022-12-22T22:41:44.506Z,7.65
2022-12-22T22:51:48.979Z,7.79
2022-12-22T23:01:52.677Z,7.80
2022-12-22T23:11:56.476Z,7.53
2022-12-22T23:22:00.114Z,7.31
2022-12-22T23:32:04.746Z,7.28
2022-12-22T23:42:09.557Z,7.23
2022-12-22T23:52:13.267Z,7.17
